createdAt,value
2022-12-15T00:02:24.039Z,23.17
2022-12-15T00:05:10.348Z,22.40
2022-12-15T00:07:56.321Z,21.48
2022-12-15T00:10:42.916Z,22.98
2022-12-15T00:13:30.671Z,22.33
2022-12-15T00:16:17.611Z,22.07
2022-12-15T00:21:49.936Z,22.20
2022-12-15T00:24:35.747Z,21.95
2022-12-15T00:27:22.729Z,20.77
2022-12-15T00:30:08.708Z,21.83
2022-12-15T00:32:55.229Z,20.95
2022-12-15T00:35:41.359Z,20.83
2022-12-15T00:41:00.952Z,22.47
2022-12-15T00:43:32.362Z,22.50
2022-12-15T00:46:18.861Z,20.20
2022-12-15T00:51:13.798Z,22.80
2022-12-15T00:53:59.613Z,22.37
2022-12-15T00:56:45.781Z,21.75
2022-12-15T00:59:32.254Z,22.62
2022-12-15T01:02:18.855Z,22.10
2022-12-15T01:10:37.504Z,20.83
2022-12-15T01:13:23.915Z,24.55
2022-12-15T01:16:09.883Z,24.23
2022-12-15T01:18:56.300Z,22.48
2022-12-15T01:21:25.523Z,24.20
2022-12-15T01:23:53.425Z,20.83
2022-12-15T01:26:20.805Z,23.20
2022-12-15T01:28:48.258Z,21.87
2022-12-15T01:31:15.924Z,22.80
2022-12-15T01:33:43.769Z,23.23
2022-12-15T01:36:11.358Z,24.50
2022-12-15T01:38:38.965Z,22.33
2022-12-15T01:41:07.787Z,20.77
2022-12-15T01:43:36.956Z,22.93
2022-12-15T01:46:08.612Z,21.87
2022-12-15T01:48:49.636Z,22.20
2022-12-15T01:51:34.084Z,23.07
2022-12-15T01:54:27.762Z,22.93
2022-12-15T01:56:57.153Z,21.97
2022-12-15T01:59:27.224Z,22.67
2022-12-15T02:01:55.008Z,23.10
2022-12-15T02:04:23.108Z,21.73
2022-12-15T02:06:50.673Z,21.80
2022-12-15T02:09:18.122Z,23.47
2022-12-15T02:11:59.790Z,22.73
2022-12-15T02:14:52.168Z,21.83
2022-12-15T02:17:27.391Z,21.30
2022-12-15T02:20:36.583Z,22.23
2022-12-15T02:23:06.780Z,21.80
2022-12-15T02:26:01.379Z,21.93
2022-12-15T02:28:35.292Z,21.67
2022-12-15T02:31:49.868Z,21.27
2022-12-15T02:34:33.407Z,20.62
2022-12-15T02:37:05.205Z,23.70
2022-12-15T02:39:32.812Z,22.83
2022-12-15T02:42:00.135Z,22.50
2022-12-15T02:44:35.240Z,21.90
2022-12-15T02:47:21.106Z,23.67
2022-12-15T02:49:51.269Z,23.52
2022-12-15T02:52:21.586Z,22.60
2022-12-15T02:55:11.040Z,21.87
2022-12-15T02:57:47.168Z,24.33
2022-12-15T03:00:14.509Z,23.52
2022-12-15T03:02:44.503Z,24.00
2022-12-15T03:05:12.417Z,22.40
2022-12-15T03:07:42.760Z,22.83
2022-12-15T03:10:11.681Z,24.07
2022-12-15T03:12:39.055Z,22.40
2022-12-15T03:15:06.964Z,22.43
2022-12-15T03:17:34.593Z,25.53
2022-12-15T03:20:02.173Z,22.30
2022-12-15T03:22:29.694Z,24.67
2022-12-15T03:24:57.663Z,24.50
2022-12-15T03:27:25.051Z,25.93
2022-12-15T03:29:52.425Z,24.17
2022-12-15T03:32:20.184Z,22.40
2022-12-15T03:34:47.581Z,22.10
2022-12-15T03:37:14.945Z,25.00
2022-12-15T03:39:42.542Z,22.77
2022-12-15T03:42:09.878Z,21.73
2022-12-15T03:44:37.197Z,22.47
2022-12-15T03:47:05.901Z,22.33
2022-12-15T03:49:33.245Z,22.93
2022-12-15T03:52:00.603Z,21.20
2022-12-15T03:54:28.208Z,23.50
2022-12-15T03:56:55.590Z,21.53
2022-12-15T03:59:22.942Z,23.73
2022-12-15T04:01:50.608Z,23.43
2022-12-15T04:04:18.353Z,23.57
2022-12-15T04:06:46.168Z,23.10
2022-12-15T04:09:13.479Z,21.80
2022-12-15T04:11:41.156Z,22.07
2022-12-15T04:14:09.418Z,22.10
2022-12-15T04:16:36.742Z,21.63
2022-12-15T04:19:23.276Z,24.80
2022-12-15T04:21:50.571Z,25.12
2022-12-15T04:24:37.041Z,25.10
2022-12-15T04:27:23.079Z,24.15
2022-12-15T04:30:09.537Z,25.77
2022-12-15T04:32:55.848Z,25.48
2022-12-15T04:43:59.771Z,24.00
2022-12-15T04:46:46.050Z,24.67
2022-12-15T04:49:32.024Z,25.17
2022-12-15T04:52:18.509Z,25.30
2022-12-15T04:55:04.694Z,27.98
2022-12-15T05:00:36.533Z,23.42
2022-12-15T05:03:24.036Z,23.73
2022-12-15T05:06:10.208Z,23.43
2022-12-15T05:11:42.115Z,22.90
2022-12-15T05:14:28.591Z,23.08
2022-12-15T05:17:14.607Z,23.10
2022-12-15T05:20:00.926Z,22.95
2022-12-15T05:22:46.944Z,26.02
2022-12-15T05:25:33.350Z,26.60
2022-12-15T05:28:19.484Z,26.83
2022-12-15T05:33:33.759Z,25.40
2022-12-15T05:36:01.695Z,24.23
2022-12-15T05:38:29.013Z,24.07
2022-12-15T05:40:59.457Z,24.23
2022-12-15T05:43:27.265Z,24.30
2022-12-15T05:45:54.747Z,26.03
2022-12-15T05:48:22.251Z,27.00
2022-12-15T05:50:50.580Z,25.30
2022-12-15T05:53:17.935Z,26.20
2022-12-15T05:55:45.254Z,27.47
2022-12-15T05:58:12.915Z,27.30
2022-12-15T06:00:40.368Z,27.23
2022-12-15T06:03:08.033Z,25.97
2022-12-15T06:05:35.472Z,27.47
2022-12-15T06:08:02.865Z,27.23
2022-12-15T06:10:30.461Z,25.77
2022-12-15T06:12:57.795Z,26.43
2022-12-15T06:15:25.134Z,24.40
2022-12-15T06:17:55.724Z,24.97
2022-12-15T06:20:23.076Z,26.80
2022-12-15T06:22:50.457Z,24.27
2022-12-15T06:25:18.058Z,27.03
2022-12-15T06:27:45.409Z,27.93
2022-12-15T06:30:13.333Z,31.67
2022-12-15T06:32:40.969Z,30.40
2022-12-15T06:35:08.642Z,30.40
2022-12-15T06:37:36.138Z,27.03
2022-12-15T06:40:04.056Z,28.47
2022-12-15T06:42:31.433Z,31.27
2022-12-15T06:44:58.774Z,34.20
2022-12-15T06:47:26.376Z,34.37
2022-12-15T06:49:53.847Z,29.53
2022-12-15T06:52:21.288Z,31.23
2022-12-15T06:54:48.877Z,31.87
2022-12-15T06:57:16.848Z,28.80
2022-12-15T06:59:44.286Z,29.53
2022-12-15T07:02:21.078Z,29.10
2022-12-15T07:04:51.111Z,35.33
2022-12-15T07:07:18.774Z,34.60
2022-12-15T07:09:48.876Z,35.40
2022-12-15T07:12:16.246Z,31.07
2022-12-15T07:14:47.471Z,31.30
2022-12-15T07:19:47.864Z,30.40
2022-12-15T07:22:15.223Z,31.83
2022-12-15T07:24:42.547Z,36.37
2022-12-15T07:27:10.186Z,31.30
2022-12-15T07:29:37.483Z,31.50
2022-12-15T07:32:05.003Z,31.83
2022-12-15T07:34:32.606Z,33.03
2022-12-15T07:37:00.051Z,30.53
2022-12-15T07:39:27.763Z,32.67
2022-12-15T07:41:55.508Z,30.47
2022-12-15T07:44:22.837Z,33.43
2022-12-15T07:46:50.171Z,32.27
2022-12-15T07:49:18.058Z,31.67
2022-12-15T07:51:45.397Z,33.63
2022-12-15T07:54:13.178Z,30.23
2022-12-15T07:56:40.801Z,34.77
2022-12-15T07:59:08.178Z,31.47
2022-12-15T08:01:35.746Z,31.57
2022-12-15T08:04:03.639Z,31.30
2022-12-15T08:06:31.053Z,30.43
2022-12-15T08:08:58.499Z,28.20
2022-12-15T08:11:26.162Z,29.43
2022-12-15T08:14:14.928Z,29.87
2022-12-15T08:16:41.197Z,30.63
2022-12-15T08:19:11.257Z,30.00
2022-12-15T08:21:42.165Z,30.10
2022-12-15T08:24:09.847Z,32.27
2022-12-15T08:26:38.054Z,31.17
2022-12-15T08:31:53.773Z,29.83
2022-12-15T08:34:21.369Z,30.00
2022-12-15T08:36:48.717Z,33.10
2022-12-15T08:39:16.616Z,31.23
2022-12-15T08:41:44.118Z,30.47
2022-12-15T08:44:11.452Z,31.63
2022-12-15T08:46:39.905Z,30.67
2022-12-15T08:49:08.759Z,29.97
2022-12-15T08:51:36.072Z,31.13
2022-12-15T08:54:03.716Z,29.53
2022-12-15T08:56:31.145Z,28.50
2022-12-15T08:58:59.991Z,30.03
2022-12-15T09:01:28.900Z,29.50
2022-12-15T09:03:56.594Z,33.43
2022-12-15T09:06:28.737Z,31.60
2022-12-15T09:08:57.136Z,30.37
2022-12-15T09:11:25.287Z,33.63
2022-12-15T09:13:52.700Z,30.90
2022-12-15T09:16:20.655Z,28.50
2022-12-15T09:18:53.202Z,30.23
2022-12-15T09:21:23.165Z,30.57
2022-12-15T09:23:52.069Z,31.80
2022-12-15T09:26:20.500Z,30.20
2022-12-15T09:28:50.125Z,31.17
2022-12-15T09:31:22.915Z,31.80
2022-12-15T09:33:51.866Z,32.13
2022-12-15T09:36:19.274Z,32.40
2022-12-15T09:38:46.674Z,32.07
2022-12-15T09:41:17.382Z,31.97
2022-12-15T09:44:23.008Z,34.20
2022-12-15T09:49:30.055Z,30.03
2022-12-15T09:52:17.925Z,32.08
2022-12-15T09:54:46.344Z,33.53
2022-12-15T09:57:25.585Z,31.80
2022-12-15T10:00:33.442Z,34.90
2022-12-15T10:03:19.989Z,32.87
2022-12-15T10:06:27.080Z,31.73
2022-12-15T10:09:27.929Z,30.37
2022-12-15T10:12:00.403Z,30.47
2022-12-15T10:14:34.421Z,30.80
2022-12-15T10:17:07.378Z,34.17
2022-12-15T10:19:40.816Z,30.37
2022-12-15T10:22:16.816Z,30.33
2022-12-15T10:25:09.270Z,32.15
2022-12-15T10:27:34.153Z,32.80
2022-12-15T10:30:09.661Z,32.70
2022-12-15T10:32:43.060Z,29.47
2022-12-15T10:35:15.823Z,32.57
2022-12-15T10:37:43.353Z,31.23
2022-12-15T10:40:15.365Z,32.43
2022-12-15T10:42:50.213Z,32.37
2022-12-15T10:45:38.072Z,31.27
2022-12-15T10:48:06.993Z,31.60
2022-12-15T10:50:35.489Z,34.80
2022-12-15T10:53:09.923Z,31.80
2022-12-15T10:55:39.864Z,31.17
2022-12-15T10:58:18.527Z,33.07
2022-12-15T11:00:46.562Z,31.43
2022-12-15T11:03:26.249Z,32.93
2022-12-15T11:05:55.243Z,36.40
2022-12-15T11:08:23.605Z,32.10
2022-12-15T11:11:14.067Z,34.90
2022-12-15T11:13:42.054Z,33.37
2022-12-15T11:16:17.289Z,34.27
2022-12-15T11:18:51.500Z,30.37
2022-12-15T11:21:34.511Z,42.10
2022-12-15T11:24:22.667Z,35.03
2022-12-15T11:27:30.700Z,36.33
2022-12-15T11:30:16.003Z,37.07
2022-12-15T11:32:46.897Z,36.53
2022-12-15T11:35:19.159Z,36.43
2022-12-15T11:37:51.712Z,35.57
2022-12-15T11:40:52.757Z,36.00
2022-12-15T11:43:43.470Z,34.83
2022-12-15T11:46:14.126Z,35.87
2022-12-15T11:48:49.030Z,37.60
2022-12-15T11:51:34.989Z,36.23
2022-12-15T11:54:17.779Z,36.22
2022-12-15T11:56:53.005Z,38.23
2022-12-15T11:59:32.556Z,37.20
2022-12-15T12:02:23.004Z,35.40
2022-12-15T12:05:14.012Z,35.00
2022-12-15T12:07:50.914Z,36.47
2022-12-15T12:10:24.249Z,36.77
2022-12-15T12:13:04.770Z,36.23
2022-12-15T12:15:55.925Z,36.13
2022-12-15T12:18:30.158Z,36.97
2022-12-15T12:21:12.440Z,38.17
2022-12-15T12:23:47.735Z,34.90
2022-12-15T12:26:25.345Z,36.97
2022-12-15T12:29:28.182Z,36.17
2022-12-15T12:32:05.201Z,36.37
2022-12-15T12:34:35.841Z,34.63
2022-12-15T12:37:25.233Z,37.93
2022-12-15T12:39:52.849Z,43.20
2022-12-15T12:42:40.207Z,39.07
2022-12-15T12:45:12.135Z,41.00
2022-12-15T12:47:41.616Z,40.70
2022-12-15T12:50:28.001Z,40.83
2022-12-15T12:52:59.293Z,39.77
2022-12-15T12:55:40.073Z,41.67
2022-12-15T12:58:34.457Z,38.83
2022-12-15T13:01:15.245Z,39.27
2022-12-15T13:03:43.573Z,38.97
2022-12-15T13:06:35.670Z,36.70
2022-12-15T13:09:47.854Z,39.83
2022-12-15T13:12:51.603Z,39.83
2022-12-15T13:15:29.340Z,40.65
2022-12-15T13:18:00.247Z,41.63
2022-12-15T13:20:32.100Z,42.33
2022-12-15T13:23:25.639Z,44.00
2022-12-15T13:28:45.636Z,43.27
2022-12-15T13:31:16.537Z,39.97
2022-12-15T13:34:11.949Z,39.73
2022-12-15T13:36:39.448Z,39.45
2022-12-15T13:39:13.061Z,40.00
2022-12-15T13:42:07.881Z,43.87
2022-12-15T13:44:48.655Z,40.17
2022-12-15T13:47:21.147Z,41.47
2022-12-15T13:50:02.882Z,39.00
2022-12-15T13:53:16.340Z,40.07
2022-12-15T13:55:28.112Z,40.17
2022-12-15T13:57:58.856Z,40.70
2022-12-15T14:00:26.268Z,41.47
2022-12-15T14:03:07.114Z,44.73
2022-12-15T14:05:34.571Z,40.67
2022-12-15T14:08:03.504Z,40.17
2022-12-15T14:10:36.678Z,40.27
2022-12-15T14:13:21.194Z,44.70
2022-12-15T14:15:59.699Z,41.73
2022-12-15T14:18:35.705Z,41.90
2022-12-15T14:21:07.175Z,43.77
2022-12-15T14:24:03.976Z,46.60
2022-12-15T14:26:32.454Z,44.23
2022-12-15T14:29:05.533Z,45.23
2022-12-15T14:31:33.197Z,41.53
2022-12-15T14:34:03.705Z,41.47
2022-12-15T14:36:31.053Z,47.60
2022-12-15T14:39:00.269Z,45.17
2022-12-15T14:41:29.790Z,43.20
2022-12-15T14:44:31.868Z,43.93
2022-12-15T14:46:49.504Z,47.13
2022-12-15T14:49:26.963Z,44.00
2022-12-15T14:51:59.764Z,46.37
2022-12-15T14:54:37.639Z,46.70
2022-12-15T14:57:15.154Z,44.27
2022-12-15T14:59:44.059Z,42.77
2022-12-15T15:02:23.137Z,48.93
2022-12-15T15:03:15.373Z,39.47
2022-12-15T15:04:59.924Z,51.63
2022-12-15T15:07:28.824Z,46.53
2022-12-15T15:09:56.180Z,45.23
2022-12-15T15:12:24.723Z,51.30
2022-12-15T15:15:00.292Z,46.57
2022-12-15T15:17:57.324Z,46.90
2022-12-15T15:20:35.904Z,46.10
2022-12-15T15:23:19.104Z,44.75
2022-12-15T15:25:49.615Z,47.03
2022-12-15T15:28:19.733Z,45.00
2022-12-15T15:30:59.261Z,44.17
2022-12-15T15:33:27.595Z,45.53
2022-12-15T15:35:56.516Z,45.53
2022-12-15T15:38:35.718Z,42.90
2022-12-15T15:41:30.034Z,41.07
2022-12-15T15:44:01.404Z,40.53
2022-12-15T15:46:31.257Z,40.23
2022-12-15T15:49:12.669Z,42.87
2022-12-15T15:51:40.589Z,43.23
2022-12-15T15:54:13.133Z,42.90
2022-12-15T15:56:41.551Z,43.77
2022-12-15T15:59:13.140Z,43.53
2022-12-15T16:01:41.050Z,40.90
2022-12-15T16:04:09.142Z,41.40
2022-12-15T16:06:37.470Z,40.97
2022-12-15T16:09:07.264Z,37.37
2022-12-15T16:11:35.351Z,41.83
2022-12-15T16:14:10.891Z,43.23
2022-12-15T16:16:38.669Z,41.33
2022-12-15T16:19:06.056Z,43.33
2022-12-15T16:21:33.499Z,43.90
2022-12-15T16:24:06.442Z,43.57
2022-12-15T16:26:33.837Z,43.47
2022-12-15T16:29:01.484Z,50.17
2022-12-15T16:31:39.146Z,53.33
2022-12-15T16:34:09.315Z,71.40
2022-12-15T16:36:36.683Z,45.43
2022-12-15T16:39:26.887Z,47.57
2022-12-15T16:41:55.182Z,51.97
2022-12-15T16:44:22.908Z,50.77
2022-12-15T16:46:50.337Z,45.53
2022-12-15T16:49:18.032Z,38.57
2022-12-15T16:51:46.980Z,41.17
2022-12-15T16:54:16.786Z,39.43
2022-12-15T16:56:44.445Z,37.13
2022-12-15T16:59:35.627Z,35.77
2022-12-15T17:02:22.217Z,36.37
2022-12-15T17:04:50.295Z,32.95
2022-12-15T17:07:20.423Z,33.47
2022-12-15T17:09:49.573Z,33.77
2022-12-15T17:12:17.961Z,33.50
2022-12-15T17:14:45.817Z,35.43
2022-12-15T17:17:17.596Z,33.90
2022-12-15T17:20:11.758Z,33.47
2022-12-15T17:22:33.279Z,30.77
2022-12-15T17:25:00.715Z,34.07
2022-12-15T17:27:28.616Z,32.30
2022-12-15T17:29:56.447Z,32.57
2022-12-15T17:32:23.863Z,31.13
2022-12-15T17:34:51.741Z,32.23
2022-12-15T17:37:19.376Z,31.50
2022-12-15T17:39:51.099Z,30.23
2022-12-15T17:42:19.804Z,30.53
2022-12-15T17:44:47.954Z,31.37
2022-12-15T17:47:15.667Z,30.77
2022-12-15T17:49:43.406Z,30.27
2022-12-15T17:52:26.194Z,35.73
2022-12-15T17:54:53.931Z,32.13
2022-12-15T17:57:21.279Z,29.70
2022-12-15T17:59:48.650Z,29.03
2022-12-15T18:02:16.378Z,30.87
2022-12-15T18:04:44.115Z,31.03
2022-12-15T18:07:21.903Z,29.73
2022-12-15T18:09:52.317Z,27.93
2022-12-15T18:12:24.019Z,31.57
2022-12-15T18:14:52.130Z,30.47
2022-12-15T18:17:19.909Z,30.20
2022-12-15T18:19:47.281Z,31.37
2022-12-15T18:22:18.851Z,31.37
2022-12-15T18:24:46.530Z,34.00
2022-12-15T18:27:27.131Z,32.13
2022-12-15T18:29:54.862Z,33.93
2022-12-15T18:32:25.342Z,30.17
2022-12-15T18:34:53.598Z,29.00
2022-12-15T18:37:23.144Z,28.70
2022-12-15T18:39:50.926Z,26.90
2022-12-15T18:42:19.302Z,26.17
2022-12-15T18:44:49.055Z,26.23
2022-12-15T18:47:23.364Z,27.10
2022-12-15T18:49:51.211Z,28.03
2022-12-15T18:52:20.782Z,25.67
2022-12-15T18:54:49.123Z,25.10
2022-12-15T18:57:33.502Z,25.43
2022-12-15T19:00:09.815Z,26.13
2022-12-15T19:02:37.804Z,24.85
2022-12-15T19:05:06.221Z,23.87
2022-12-15T19:07:34.223Z,23.70
2022-12-15T19:10:01.856Z,25.30
2022-12-15T19:12:29.181Z,22.57
2022-12-15T19:14:56.540Z,24.63
2022-12-15T19:17:42.917Z,24.73
2022-12-15T19:20:36.528Z,24.80
2022-12-15T19:23:04.835Z,23.33
2022-12-15T19:25:32.198Z,25.33
2022-12-15T19:28:00.108Z,25.07
2022-12-15T19:30:29.881Z,25.33
2022-12-15T19:32:57.354Z,25.03
2022-12-15T19:35:25.609Z,23.57
2022-12-15T19:37:55.971Z,24.63
2022-12-15T19:40:27.473Z,22.30
2022-12-15T19:42:55.673Z,23.50
2022-12-15T19:45:24.483Z,23.40
2022-12-15T19:47:52.076Z,22.33
2022-12-15T19:50:22.381Z,24.17
2022-12-15T19:52:51.667Z,22.13
2022-12-15T19:55:23.399Z,22.00
2022-12-15T19:57:51.093Z,23.07
2022-12-15T20:00:24.808Z,22.03
2022-12-15T20:02:54.590Z,24.13
2022-12-15T20:05:22.951Z,25.70
2022-12-15T20:07:53.777Z,25.03
2022-12-15T20:10:29.402Z,25.00
2022-12-15T20:13:00.672Z,23.47
2022-12-15T20:15:28.341Z,25.20
2022-12-15T20:17:58.464Z,24.07
2022-12-15T20:20:27.205Z,23.10
2022-12-15T20:22:56.242Z,23.37
2022-12-15T20:25:31.119Z,22.47
2022-12-15T20:28:00.603Z,23.83
2022-12-15T20:30:32.807Z,21.93
2022-12-15T20:33:03.777Z,20.13
2022-12-15T20:35:33.110Z,21.00
2022-12-15T20:38:02.299Z,19.30
2022-12-15T20:40:29.839Z,19.60
2022-12-15T20:42:57.287Z,22.50
2022-12-15T20:45:25.631Z,20.67
2022-12-15T20:47:53.829Z,20.53
2022-12-15T20:50:44.090Z,20.30
2022-12-15T20:53:17.258Z,21.17
2022-12-15T20:55:44.863Z,23.50
2022-12-15T20:58:12.707Z,20.47
2022-12-15T21:00:40.072Z,22.13
2022-12-15T21:03:31.277Z,20.27
2022-12-15T21:05:59.347Z,23.20
2022-12-15T21:08:28.259Z,20.70
2022-12-15T21:11:13.607Z,21.10
2022-12-15T21:13:41.350Z,20.55
2022-12-15T21:16:15.510Z,21.23
2022-12-15T21:21:32.784Z,20.03
2022-12-15T21:24:01.039Z,20.17
2022-12-15T21:26:28.849Z,21.80
2022-12-15T21:28:59.817Z,21.37
2022-12-15T21:31:27.490Z,21.67
2022-12-15T21:33:55.045Z,21.30
2022-12-15T21:36:22.490Z,22.40
2022-12-15T21:38:50.879Z,22.17
2022-12-15T21:41:20.505Z,22.70
2022-12-15T21:43:48.047Z,22.57
2022-12-15T21:46:24.625Z,22.80
2022-12-15T21:49:14.823Z,22.10
2022-12-15T21:51:43.678Z,21.20
2022-12-15T21:54:17.438Z,23.17
2022-12-15T21:56:47.400Z,20.37
2022-12-15T21:59:16.144Z,20.93
2022-12-15T22:01:43.766Z,21.57
2022-12-15T22:04:19.416Z,22.37
2022-12-15T22:06:50.215Z,21.67
2022-12-15T22:09:18.938Z,21.20
2022-12-15T22:11:47.537Z,20.20
2022-12-15T22:14:41.048Z,18.50
2022-12-15T22:17:19.715Z,20.43
2022-12-15T22:19:47.625Z,19.90
2022-12-15T22:22:16.567Z,19.07
2022-12-15T22:24:44.009Z,20.23
2022-12-15T22:27:21.497Z,21.23
2022-12-15T22:29:49.177Z,19.60
2022-12-15T22:32:16.955Z,20.93
2022-12-15T22:34:44.343Z,21.57
2022-12-15T22:37:11.988Z,21.07
2022-12-15T22:39:39.710Z,21.53
2022-12-15T22:42:07.051Z,20.53
2022-12-15T22:44:36.042Z,21.20
2022-12-15T22:47:03.475Z,21.97
2022-12-15T22:49:34.091Z,22.47
2022-12-15T22:52:01.822Z,20.10
2022-12-15T22:54:29.531Z,21.33
2022-12-15T22:57:04.509Z,22.97
2022-12-15T22:59:31.957Z,19.17
2022-12-15T23:02:01.196Z,19.80
2022-12-15T23:04:29.588Z,20.40
2022-12-15T23:06:58.063Z,19.57
2022-12-15T23:09:25.467Z,22.03
2022-12-15T23:11:52.814Z,18.53
2022-12-15T23:14:42.554Z,17.33
2022-12-15T23:17:09.896Z,18.40
2022-12-15T23:19:37.489Z,19.87
2022-12-15T23:22:04.797Z,18.90
2022-12-15T23:24:32.653Z,17.67
2022-12-15T23:27:00.255Z,16.87
2022-12-15T23:29:27.698Z,16.30
2022-12-15T23:31:55.457Z,16.03
2022-12-15T23:34:23.076Z,16.57
2022-12-15T23:36:50.740Z,17.83
2022-12-15T23:39:18.103Z,16.63
2022-12-15T23:41:45.706Z,16.17
2022-12-15T23:44:13.044Z,15.27
2022-12-15T23:46:40.734Z,16.33
2022-12-15T23:49:08.424Z,15.90
2022-12-15T23:51:35.745Z,14.90
2022-12-15T23:54:03.117Z,13.33
2022-12-15T23:56:30.771Z,14.67
2022-12-15T23:58:58.772Z,13.93
